createdAt,value
2018-05-03T00:01:06.346Z,11.60
2018-05-03T00:03:36.211Z,13.17
2018-05-03T00:06:02.813Z,13.27
2018-05-03T00:08:29.461Z,14.03
2018-05-03T00:10:56.105Z,14.87
2018-05-03T00:13:26.599Z,13.77
2018-05-03T00:15:53.201Z,15.33
2018-05-03T00:18:20.163Z,11.97
2018-05-03T00:20:46.693Z,13.50
2018-05-03T00:23:17.249Z,10.60
2018-05-03T00:25:44.428Z,14.20
2018-05-03T00:28:11.074Z,11.63
2018-05-03T00:30:38.433Z,12.03
2018-05-03T00:33:08.157Z,13.00
2018-05-03T00:35:34.817Z,15.03
2018-05-03T00:38:01.475Z,19.03
2018-05-03T00:40:28.126Z,14.20
2018-05-03T00:42:56.163Z,13.60
2018-05-03T00:45:22.874Z,12.80
2018-05-03T00:47:49.758Z,13.73
2018-05-03T00:50:16.909Z,15.53
2018-05-03T00:52:47.429Z,13.37
2018-05-03T00:55:14.112Z,13.73
2018-05-03T00:57:40.702Z,12.83
2018-05-03T01:00:07.272Z,12.90
2018-05-03T01:02:48.225Z,14.57
2018-05-03T01:05:14.759Z,13.13
2018-05-03T01:07:41.383Z,12.43
2018-05-03T01:10:08.156Z,11.63
2018-05-03T01:12:45.330Z,13.77
2018-05-03T01:15:11.892Z,13.87
2018-05-03T01:17:38.514Z,13.80
2018-05-03T01:20:05.045Z,12.87
2018-05-03T01:22:35.255Z,13.67
2018-05-03T01:25:01.890Z,14.40
2018-05-03T01:27:28.416Z,16.50
2018-05-03T01:29:55.165Z,13.83
2018-05-03T01:32:26.516Z,13.03
2018-05-03T01:35:04.946Z,12.10
2018-05-03T01:37:31.594Z,15.47
2018-05-03T01:39:59.565Z,18.47
2018-05-03T01:42:26.248Z,15.73
2018-05-03T01:44:52.903Z,15.27
2018-05-03T01:47:19.493Z,12.67
2018-05-03T01:49:46.229Z,16.00
2018-05-03T01:52:14.408Z,12.60
2018-05-03T01:54:41.133Z,12.83
2018-05-03T01:57:07.701Z,11.70
2018-05-03T01:59:34.704Z,14.20
2018-05-03T02:02:01.257Z,12.70
2018-05-03T02:04:27.888Z,13.07
2018-05-03T02:06:54.797Z,18.43
2018-05-03T02:09:21.522Z,13.47
2018-05-03T02:11:48.286Z,13.13
2018-05-03T02:14:15.990Z,11.47
2018-05-03T02:16:42.609Z,12.20
2018-05-03T02:19:09.492Z,12.07
2018-05-03T02:21:36.139Z,16.13
2018-05-03T02:24:06.101Z,12.13
2018-05-03T02:26:32.898Z,14.17
2018-05-03T02:28:59.482Z,13.20
2018-05-03T02:31:25.989Z,12.07
2018-05-03T02:33:56.096Z,11.97
2018-05-03T02:36:22.632Z,11.70
2018-05-03T02:38:49.382Z,12.60
2018-05-03T02:41:16.096Z,14.13
2018-05-03T02:43:43.045Z,14.90
2018-05-03T02:46:09.963Z,12.90
2018-05-03T02:48:36.601Z,11.37
2018-05-03T02:51:03.142Z,14.80
2018-05-03T02:53:37.396Z,15.87
2018-05-03T02:56:04.684Z,12.80
2018-05-03T02:58:43.416Z,11.97
2018-05-03T03:01:28.171Z,11.83
2018-05-03T03:04:16.943Z,13.73
2018-05-03T03:13:36.097Z,12.50
2018-05-03T03:16:20.889Z,13.57
2018-05-03T03:19:05.490Z,13.20
2018-05-03T03:24:47.944Z,12.83
2018-05-03T03:27:32.837Z,18.17
2018-05-03T03:30:11.554Z,14.77
2018-05-03T03:32:56.524Z,13.47
2018-05-03T03:38:46.060Z,13.40
2018-05-03T03:41:24.734Z,13.10
2018-05-03T03:44:08.916Z,17.20
2018-05-03T03:46:35.737Z,14.80
2018-05-03T03:49:02.490Z,14.87
2018-05-03T03:51:29.264Z,13.57
2018-05-03T03:53:59.065Z,13.80
2018-05-03T03:56:25.672Z,13.83
2018-05-03T03:58:52.532Z,16.73
2018-05-03T04:01:19.226Z,14.23
2018-05-03T04:03:47.162Z,15.83
2018-05-03T04:06:13.723Z,17.53
2018-05-03T04:08:40.497Z,12.27
2018-05-03T04:11:07.155Z,12.07
2018-05-03T04:13:40.723Z,15.37
2018-05-03T04:16:07.460Z,15.40
2018-05-03T04:18:46.012Z,12.80
2018-05-03T04:21:25.291Z,16.50
2018-05-03T04:24:08.217Z,14.90
2018-05-03T04:26:34.970Z,16.63
2018-05-03T04:29:01.565Z,15.30
2018-05-03T04:31:28.272Z,14.17
2018-05-03T04:33:59.192Z,15.80
2018-05-03T04:36:25.743Z,14.17
2018-05-03T04:38:52.814Z,16.60
2018-05-03T04:41:19.378Z,17.40
2018-05-03T04:43:53.114Z,14.47
2018-05-03T04:46:19.789Z,13.47
2018-05-03T04:48:46.405Z,15.73
2018-05-03T04:51:13.024Z,14.63
2018-05-03T04:53:42.929Z,17.93
2018-05-03T04:56:09.617Z,16.13
2018-05-03T04:58:36.337Z,15.93
2018-05-03T05:01:03.736Z,14.70
2018-05-03T05:03:35.083Z,18.03
2018-05-03T05:06:02.155Z,18.50
2018-05-03T05:08:28.779Z,16.53
2018-05-03T05:10:55.428Z,13.90
2018-05-03T05:13:22.598Z,14.10
2018-05-03T05:15:49.282Z,36.17
2018-05-03T05:18:16.001Z,12.90
2018-05-03T05:20:42.484Z,12.97
2018-05-03T05:23:12.266Z,15.50
2018-05-03T05:25:39.110Z,18.50
2018-05-03T05:28:05.740Z,14.43
2018-05-03T05:30:32.413Z,13.63
2018-05-03T05:33:05.104Z,14.87
2018-05-03T05:35:31.742Z,19.83
2018-05-03T05:37:58.414Z,16.60
2018-05-03T05:40:25.222Z,20.33
2018-05-03T05:42:55.013Z,19.43
2018-05-03T05:45:21.657Z,27.80
2018-05-03T05:47:48.306Z,14.10
2018-05-03T05:50:14.951Z,14.20
2018-05-03T05:52:47.918Z,47.77
2018-05-03T05:55:14.617Z,21.63
2018-05-03T05:57:41.450Z,17.93
2018-05-03T06:00:08.121Z,16.00
2018-05-03T06:02:56.297Z,17.60
2018-05-03T06:05:23.031Z,14.67
2018-05-03T06:07:49.745Z,13.80
2018-05-03T06:10:17.583Z,17.63
2018-05-03T06:13:01.413Z,13.43
2018-05-03T06:15:28.031Z,15.90
2018-05-03T06:17:54.693Z,19.23
2018-05-03T06:20:21.422Z,16.73
2018-05-03T06:22:51.250Z,16.47
2018-05-03T06:25:18.182Z,16.10
2018-05-03T06:27:44.890Z,13.83
2018-05-03T06:30:11.655Z,16.13
2018-05-03T06:32:41.807Z,13.57
2018-05-03T06:35:08.427Z,16.90
2018-05-03T06:37:35.107Z,16.10
2018-05-03T06:40:01.610Z,12.80
2018-05-03T06:42:31.730Z,13.90
2018-05-03T06:44:58.389Z,13.87
2018-05-03T06:47:25.399Z,13.80
2018-05-03T06:49:52.198Z,15.30
2018-05-03T06:52:21.882Z,17.60
2018-05-03T06:54:48.510Z,12.60
2018-05-03T06:57:15.253Z,14.37
2018-05-03T06:59:41.926Z,15.63
2018-05-03T07:02:21.453Z,15.57
2018-05-03T07:04:48.395Z,15.20
2018-05-03T07:07:15.070Z,15.30
2018-05-03T07:09:41.625Z,12.37
2018-05-03T07:12:11.994Z,14.53
2018-05-03T07:14:38.630Z,12.77
2018-05-03T07:17:05.389Z,13.27
2018-05-03T07:19:32.340Z,13.10
2018-05-03T07:21:59.009Z,12.00
2018-05-03T07:24:25.734Z,12.03
2018-05-03T07:26:52.235Z,12.57
2018-05-03T07:29:18.935Z,12.17
2018-05-03T07:31:51.269Z,13.33
2018-05-03T07:34:18.369Z,14.13
2018-05-03T07:36:45.078Z,12.30
2018-05-03T07:39:11.711Z,14.73
2018-05-03T07:41:45.731Z,12.47
2018-05-03T07:44:12.334Z,11.97
2018-05-03T07:46:38.910Z,14.33
2018-05-03T07:49:05.461Z,13.33
2018-05-03T07:51:35.641Z,14.30
2018-05-03T07:54:02.253Z,13.37
2018-05-03T07:56:28.826Z,16.10
2018-05-03T07:58:55.498Z,12.23
2018-05-03T08:01:23.113Z,14.53
2018-05-03T08:03:49.745Z,19.47
2018-05-03T08:06:16.306Z,12.33
2018-05-03T08:08:43.031Z,12.03
2018-05-03T08:11:09.971Z,13.27
2018-05-03T08:13:36.609Z,13.53
2018-05-03T08:16:03.221Z,13.03
2018-05-03T08:18:29.978Z,18.20
2018-05-03T08:20:56.504Z,12.93
2018-05-03T08:23:24.125Z,11.83
2018-05-03T08:25:50.698Z,12.67
2018-05-03T08:28:18.202Z,13.30
2018-05-03T08:30:44.805Z,20.37
2018-05-03T08:33:14.911Z,13.33
2018-05-03T08:35:41.746Z,11.87
2018-05-03T08:38:08.480Z,15.77
2018-05-03T08:40:35.134Z,11.23
2018-05-03T08:43:06.962Z,12.13
2018-05-03T08:45:33.632Z,11.27
2018-05-03T08:48:00.131Z,14.20
2018-05-03T08:50:26.773Z,12.97
2018-05-03T08:52:58.232Z,11.50
2018-05-03T08:55:24.977Z,12.10
2018-05-03T08:57:51.638Z,12.03
2018-05-03T09:00:18.245Z,15.00
2018-05-03T09:02:46.048Z,17.13
2018-05-03T09:05:12.557Z,11.57
2018-05-03T09:07:39.228Z,12.57
2018-05-03T09:10:05.813Z,11.77
2018-05-03T09:12:33.966Z,12.00
2018-05-03T09:15:01.233Z,16.90
2018-05-03T09:17:27.958Z,12.23
2018-05-03T09:19:54.645Z,15.47
2018-05-03T09:22:22.440Z,14.87
2018-05-03T09:24:49.268Z,10.53
2018-05-03T09:27:15.856Z,12.93
2018-05-03T09:29:42.560Z,10.03
2018-05-03T09:32:14.733Z,12.13
2018-05-03T09:34:41.365Z,13.97
2018-05-03T09:37:08.582Z,10.77
2018-05-03T09:39:35.361Z,12.63
2018-05-03T09:42:07.867Z,12.40
2018-05-03T09:44:34.922Z,13.13
2018-05-03T09:47:01.513Z,13.67
2018-05-03T09:49:28.529Z,10.23
2018-05-03T09:52:00.338Z,13.97
2018-05-03T09:54:26.894Z,12.97
2018-05-03T09:56:53.518Z,11.77
2018-05-03T09:59:20.140Z,9.77
2018-05-03T10:01:48.087Z,14.13
2018-05-03T10:04:14.868Z,8.97
2018-05-03T10:06:41.979Z,10.73
2018-05-03T10:09:08.548Z,10.17
2018-05-03T10:11:38.650Z,16.80
2018-05-03T10:14:05.246Z,11.93
2018-05-03T10:16:31.848Z,10.40
2018-05-03T10:18:58.642Z,9.77
2018-05-03T10:21:28.557Z,13.70
2018-05-03T10:23:55.054Z,10.33
2018-05-03T10:26:21.735Z,8.87
2018-05-03T10:28:48.370Z,8.93
2018-05-03T10:31:18.694Z,13.53
2018-05-03T10:33:45.399Z,12.63
2018-05-03T10:36:12.295Z,14.03
2018-05-03T10:38:38.788Z,11.27
2018-05-03T10:41:09.494Z,10.33
2018-05-03T10:43:36.196Z,9.90
2018-05-03T10:46:02.753Z,11.50
2018-05-03T10:48:29.433Z,11.87
2018-05-03T10:50:59.517Z,11.03
2018-05-03T10:53:26.122Z,12.43
2018-05-03T10:55:52.725Z,10.87
2018-05-03T10:58:19.408Z,12.77
2018-05-03T11:00:52.497Z,11.63
2018-05-03T11:03:19.125Z,12.93
2018-05-03T11:05:45.786Z,10.47
2018-05-03T11:08:12.469Z,9.63
2018-05-03T11:10:39.224Z,13.30
2018-05-03T11:13:06.036Z,11.67
2018-05-03T11:15:32.807Z,10.60
2018-05-03T11:17:59.630Z,15.10
2018-05-03T11:20:26.355Z,12.30
2018-05-03T11:22:54.162Z,18.30
2018-05-03T11:25:20.812Z,11.37
2018-05-03T11:27:47.543Z,9.40
2018-05-03T11:30:14.218Z,10.17
2018-05-03T11:32:46.569Z,11.13
2018-05-03T11:35:13.195Z,10.77
2018-05-03T11:37:39.967Z,11.40
2018-05-03T11:40:06.645Z,11.73
2018-05-03T11:42:37.207Z,13.93
2018-05-03T11:45:03.990Z,10.60
2018-05-03T11:47:30.692Z,12.50
2018-05-03T11:49:57.374Z,11.20
2018-05-03T11:52:28.065Z,10.87
2018-05-03T11:54:54.773Z,11.67
2018-05-03T11:57:21.427Z,11.23
2018-05-03T11:59:47.940Z,11.60
2018-05-03T12:02:19.843Z,11.63
2018-05-03T12:04:46.420Z,11.77
2018-05-03T12:07:13.123Z,13.87
2018-05-03T12:09:39.739Z,11.13
2018-05-03T12:12:12.859Z,15.03
2018-05-03T12:14:39.615Z,17.03
2018-05-03T12:17:06.253Z,12.57
2018-05-03T12:19:32.844Z,12.07
2018-05-03T12:22:04.161Z,13.77
2018-05-03T12:24:31.152Z,14.27
2018-05-03T12:26:57.885Z,12.43
2018-05-03T12:29:24.870Z,12.47
2018-05-03T12:31:55.421Z,9.50
2018-05-03T12:34:22.081Z,12.40
2018-05-03T12:36:48.718Z,12.50
2018-05-03T12:39:15.383Z,10.57
2018-05-03T12:41:48.393Z,12.73
2018-05-03T12:44:15.426Z,10.20
2018-05-03T12:46:42.111Z,14.00
2018-05-03T12:49:08.663Z,10.77
2018-05-03T12:51:36.404Z,12.00
2018-05-03T12:54:03.006Z,9.57
2018-05-03T12:56:29.569Z,9.47
2018-05-03T12:58:56.586Z,15.43
2018-05-03T13:01:24.613Z,10.90
2018-05-03T13:03:51.308Z,10.80
2018-05-03T13:06:18.206Z,10.90
2018-05-03T13:08:44.930Z,9.13
2018-05-03T13:11:18.910Z,10.87
2018-05-03T13:13:45.551Z,11.20
2018-05-03T13:16:12.357Z,12.30
2018-05-03T13:18:39.020Z,14.47
2018-05-03T13:21:11.810Z,13.43
2018-05-03T13:23:38.577Z,13.90
2018-05-03T13:26:05.122Z,10.77
2018-05-03T13:28:31.882Z,17.20
2018-05-03T13:31:05.235Z,12.43
2018-05-03T13:33:31.965Z,12.37
2018-05-03T13:35:58.557Z,10.37
2018-05-03T13:38:25.370Z,11.93
2018-05-03T13:40:53.011Z,12.27
2018-05-03T13:43:19.849Z,14.43
2018-05-03T13:45:46.533Z,14.93
2018-05-03T13:48:13.828Z,13.00
2018-05-03T13:50:41.706Z,13.00
2018-05-03T13:53:08.441Z,13.70
2018-05-03T13:55:35.233Z,11.33
2018-05-03T13:58:01.929Z,12.07
2018-05-03T14:00:28.534Z,16.07
2018-05-03T14:02:56.132Z,14.27
2018-05-03T14:05:22.857Z,14.30
2018-05-03T14:07:49.491Z,12.37
2018-05-03T14:10:22.716Z,16.70
2018-05-03T14:12:49.522Z,12.97
2018-05-03T14:15:16.190Z,18.67
2018-05-03T14:17:42.822Z,18.63
2018-05-03T14:20:09.498Z,14.07
2018-05-03T14:22:36.891Z,14.13
2018-05-03T14:25:03.437Z,16.60
2018-05-03T14:27:30.063Z,16.67
2018-05-03T14:29:56.762Z,17.53
2018-05-03T14:32:29.822Z,17.10
2018-05-03T14:34:56.501Z,12.90
2018-05-03T14:37:23.303Z,17.90
2018-05-03T14:39:56.731Z,15.67
2018-05-03T14:42:29.151Z,15.27
2018-05-03T14:44:56.228Z,15.33
2018-05-03T14:47:22.859Z,17.87
2018-05-03T14:49:49.515Z,15.10
2018-05-03T14:52:17.273Z,19.33
2018-05-03T14:54:44.190Z,19.73
2018-05-03T14:57:10.937Z,14.10
2018-05-03T14:59:37.618Z,17.43
2018-05-03T15:02:05.225Z,15.53
2018-05-03T15:04:31.965Z,16.03
2018-05-03T15:06:58.970Z,17.03
2018-05-03T15:09:25.703Z,16.00
2018-05-03T15:11:55.916Z,15.73
2018-05-03T15:14:22.680Z,14.00
2018-05-03T15:16:49.811Z,20.57
2018-05-03T15:19:16.573Z,16.20
2018-05-03T15:21:47.063Z,17.80
2018-05-03T15:24:13.728Z,17.83
2018-05-03T15:26:40.292Z,28.00
2018-05-03T15:29:08.347Z,16.73
2018-05-03T15:31:38.776Z,19.70
2018-05-03T15:34:05.744Z,16.23
2018-05-03T15:36:32.378Z,15.30
2018-05-03T15:39:00.041Z,19.07
2018-05-03T15:41:27.614Z,19.17
2018-05-03T15:43:54.354Z,16.03
2018-05-03T15:46:20.981Z,17.90
2018-05-03T15:48:48.012Z,25.43
2018-05-03T15:51:18.095Z,16.97
2018-05-03T15:53:44.745Z,17.43
2018-05-03T15:56:11.474Z,18.90
2018-05-03T15:58:38.155Z,20.23
2018-05-03T16:01:08.298Z,26.40
2018-05-03T16:03:35.117Z,18.97
2018-05-03T16:06:01.884Z,18.17
2018-05-03T16:08:28.721Z,17.50
2018-05-03T16:10:58.834Z,17.73
2018-05-03T16:13:25.814Z,17.43
2018-05-03T16:15:52.498Z,23.27
2018-05-03T16:18:19.191Z,25.77
2018-05-03T16:20:52.367Z,32.17
2018-05-03T16:23:19.358Z,19.97
2018-05-03T16:25:46.470Z,21.73
2018-05-03T16:28:13.289Z,19.93
2018-05-03T16:30:43.282Z,17.53
2018-05-03T16:33:09.986Z,21.97
2018-05-03T16:35:37.817Z,19.73
2018-05-03T16:38:14.977Z,22.40
2018-05-03T16:40:41.788Z,22.63
2018-05-03T16:43:08.306Z,21.93
2018-05-03T16:45:34.878Z,18.67
2018-05-03T16:48:01.450Z,24.63
2018-05-03T16:50:31.506Z,26.53
2018-05-03T16:52:58.286Z,29.53
2018-05-03T16:55:24.933Z,28.77
2018-05-03T16:57:51.700Z,25.30
2018-05-03T17:00:18.324Z,25.13
2018-05-03T17:02:44.875Z,19.70
2018-05-03T17:05:11.558Z,22.50
2018-05-03T17:07:38.208Z,18.67
2018-05-03T17:10:12.514Z,19.93
2018-05-03T17:12:39.162Z,24.50
2018-05-03T17:15:05.826Z,22.23
2018-05-03T17:17:32.635Z,22.97
2018-05-03T17:20:02.944Z,33.57
2018-05-03T17:22:29.682Z,25.03
2018-05-03T17:24:56.265Z,28.23
2018-05-03T17:27:22.914Z,29.03
2018-05-03T17:29:50.513Z,22.50
2018-05-03T17:32:17.109Z,25.93
2018-05-03T17:34:43.822Z,26.10
2018-05-03T17:37:10.426Z,27.87
2018-05-03T17:39:37.181Z,21.87
2018-05-03T17:42:03.853Z,19.53
2018-05-03T17:44:30.635Z,28.90
2018-05-03T17:46:57.243Z,24.17
2018-05-03T17:49:23.950Z,18.60
2018-05-03T17:52:00.962Z,18.70
2018-05-03T17:54:27.696Z,20.97
2018-05-03T17:56:54.322Z,23.80
2018-05-03T17:59:20.974Z,23.00
2018-05-03T18:01:52.564Z,18.53
2018-05-03T18:04:19.209Z,19.40
2018-05-03T18:06:45.858Z,22.37
2018-05-03T18:09:12.578Z,18.17
2018-05-03T18:11:45.078Z,17.73
2018-05-03T18:14:11.811Z,23.03
2018-05-03T18:16:38.534Z,17.77
2018-05-03T18:19:05.103Z,17.53
2018-05-03T18:21:35.205Z,21.67
2018-05-03T18:24:01.928Z,32.23
2018-05-03T18:26:28.581Z,30.90
2018-05-03T18:28:55.179Z,26.73
2018-05-03T18:31:22.837Z,21.90
2018-05-03T18:33:49.433Z,18.67
2018-05-03T18:36:16.164Z,17.07
2018-05-03T18:38:43.221Z,20.13
2018-05-03T18:41:20.211Z,20.17
2018-05-03T18:43:46.755Z,20.80
2018-05-03T18:46:13.285Z,19.37
2018-05-03T18:48:39.849Z,21.67
2018-05-03T18:51:09.805Z,19.40
2018-05-03T18:53:36.598Z,20.00
2018-05-03T18:56:03.260Z,20.87
2018-05-03T18:58:30.418Z,19.03
2018-05-03T19:01:02.234Z,18.13
2018-05-03T19:03:28.851Z,19.20
2018-05-03T19:05:56.052Z,21.37
2018-05-03T19:08:22.571Z,19.63
2018-05-03T19:10:52.356Z,22.17
2018-05-03T19:13:19.186Z,18.23
2018-05-03T19:15:45.686Z,22.43
2018-05-03T19:18:12.183Z,18.37
2018-05-03T19:20:42.847Z,22.10
2018-05-03T19:23:09.871Z,28.37
2018-05-03T19:25:36.599Z,36.53
2018-05-03T19:28:03.846Z,33.37
2018-05-03T19:30:36.051Z,31.63
2018-05-03T19:33:02.632Z,26.90
2018-05-03T19:35:29.695Z,31.57
2018-05-03T19:37:56.327Z,27.23
2018-05-03T19:40:27.146Z,28.97
2018-05-03T19:42:53.878Z,22.43
2018-05-03T19:45:20.840Z,21.20
2018-05-03T19:47:47.472Z,26.27
2018-05-03T19:50:15.194Z,23.77
2018-05-03T19:52:41.727Z,18.10
2018-05-03T19:55:08.390Z,21.03
2018-05-03T19:57:35.084Z,18.07
2018-05-03T20:00:02.881Z,20.53
2018-05-03T20:02:29.598Z,18.57
2018-05-03T20:04:56.346Z,17.17
2018-05-03T20:07:23.053Z,18.87
2018-05-03T20:09:49.717Z,19.27
2018-05-03T20:12:16.463Z,19.47
2018-05-03T20:14:43.172Z,21.30
2018-05-03T20:17:09.651Z,21.33
2018-05-03T20:19:37.501Z,18.60
2018-05-03T20:22:04.116Z,20.93
2018-05-03T20:24:30.762Z,20.83
2018-05-03T20:26:57.877Z,23.57
2018-05-03T20:29:24.543Z,21.00
2018-05-03T20:31:51.769Z,23.83
2018-05-03T20:34:18.343Z,26.73
2018-05-03T20:36:44.876Z,23.90
2018-05-03T20:39:11.535Z,21.33
2018-05-03T20:41:38.269Z,24.93
2018-05-03T20:44:04.867Z,23.83
2018-05-03T20:46:31.500Z,25.73
2018-05-03T20:48:58.567Z,22.10
2018-05-03T20:51:29.057Z,21.53
2018-05-03T20:53:55.750Z,26.50
2018-05-03T20:56:22.767Z,23.20
2018-05-03T20:58:49.705Z,19.30
2018-05-03T21:01:24.585Z,21.27
2018-05-03T21:03:51.297Z,19.23
2018-05-03T21:06:18.735Z,21.73
2018-05-03T21:08:45.329Z,20.53
2018-05-03T21:11:15.129Z,19.43
2018-05-03T21:13:41.814Z,17.67
2018-05-03T21:16:08.487Z,23.60
2018-05-03T21:18:35.231Z,20.87
2018-05-03T21:21:07.102Z,19.90
2018-05-03T21:23:34.010Z,22.03
2018-05-03T21:26:01.473Z,21.17
2018-05-03T21:28:28.417Z,24.53
2018-05-03T21:31:00.932Z,19.90
2018-05-03T21:33:27.768Z,20.53
2018-05-03T21:35:54.406Z,20.97
2018-05-03T21:38:21.277Z,18.23
2018-05-03T21:40:49.237Z,18.53
2018-05-03T21:43:15.979Z,19.83
2018-05-03T21:45:42.528Z,20.93
2018-05-03T21:48:09.265Z,17.93
2018-05-03T21:50:39.301Z,18.53
2018-05-03T21:53:06.306Z,19.57
2018-05-03T21:55:33.249Z,19.47
2018-05-03T21:57:59.913Z,19.90
2018-05-03T22:00:26.838Z,18.20
2018-05-03T22:02:53.570Z,18.23
2018-05-03T22:05:20.162Z,19.27
2018-05-03T22:07:46.709Z,20.70
2018-05-03T22:10:13.604Z,18.90
2018-05-03T22:12:40.142Z,20.37
2018-05-03T22:15:06.881Z,20.20
2018-05-03T22:17:33.570Z,19.07
2018-05-03T22:20:03.683Z,21.30
2018-05-03T22:22:30.440Z,18.23
2018-05-03T22:24:58.394Z,22.97
2018-05-03T22:27:25.202Z,18.00
2018-05-03T22:29:52.998Z,21.93
2018-05-03T22:32:19.804Z,22.77
2018-05-03T22:34:46.500Z,20.23
2018-05-03T22:37:13.129Z,18.13
2018-05-03T22:39:40.832Z,19.20
2018-05-03T22:42:07.778Z,22.47
2018-05-03T22:44:34.441Z,21.60
2018-05-03T22:47:01.150Z,18.87
2018-05-03T22:49:29.040Z,20.23
2018-05-03T22:51:55.734Z,18.97
2018-05-03T22:54:22.422Z,18.13
2018-05-03T22:56:49.021Z,20.40
2018-05-03T22:59:18.635Z,19.43
2018-05-03T23:01:45.314Z,17.23
2018-05-03T23:04:11.986Z,19.33
2018-05-03T23:06:38.570Z,20.97
2018-05-03T23:09:08.521Z,18.70
2018-05-03T23:11:35.180Z,20.70
2018-05-03T23:14:01.897Z,19.20
2018-05-03T23:16:28.468Z,20.07
2018-05-03T23:18:58.656Z,20.00
2018-05-03T23:21:25.349Z,17.40
2018-05-03T23:23:52.030Z,19.53
2018-05-03T23:26:18.731Z,18.00
2018-05-03T23:28:45.426Z,21.90
2018-05-03T23:31:12.088Z,17.37
2018-05-03T23:33:38.717Z,22.30
2018-05-03T23:36:05.273Z,21.33
2018-05-03T23:38:31.942Z,21.67
2018-05-03T23:41:04.883Z,20.93
2018-05-03T23:43:31.396Z,19.67
2018-05-03T23:45:58.061Z,20.23
2018-05-03T23:48:24.656Z,20.83
2018-05-03T23:50:51.494Z,21.67
2018-05-03T23:53:18.132Z,19.93
2018-05-03T23:55:44.703Z,19.90
2018-05-03T23:58:11.441Z,21.73
